< < Back
Terminal Aerodrome Forecast


Current Version              Previous Versions:   1  2  3  4  5  6  7  8  9  

Terminal Aerodrome Forecast

581
FTUS44 KMRX 241720
TAFTYS
TAF
KTYS 241720Z 2418/2518 25010G17KT P6SM SCT060 BKN180
     FM250000 32005KT P6SM SCT050
     FM250300 VRB03KT P6SM SCT250
     FM250900 01002KT 5SM BR SKC
     FM251400 02003KT P6SM SKC=



Latest METAR

793
SAUS80 KWBC 242000
MTRTYS
METAR KTYS 241953Z 25007KT 210V280 10SM FEW045 SCT075 BKN250 31/21 A3006
RMK AO2 SLP166 T03060206


USA.gov is the U.S. government's official web portal to all federal, state and local government web resources and services.